Time;durP1;ratioP1;P1;durP2;ratioP2;P2;SDS_P1;SDS_P2;PMS_P1;PMS_P2;Temp;Humidity;BMP_temperature;BMP_pressure;BME280_temperature;BME280_humidity;BME280_pressure;Samples;Min_cycle;Max_cycle;Signal;HPM_P1;HPM_P2
2023/04/26 00:01:57;;;;;;;9.80;2.60;;;3.60;99.90;;;;;;5038695;28;20498;-56
2023/04/26 00:04:23;;;;;;;9.57;2.40;;;3.80;99.90;;;;;;5038789;28;20069;-56
2023/04/26 00:06:49;;;;;;;11.85;2.88;;;3.70;99.90;;;;;;5038688;28;20428;-56
2023/04/26 00:09:15;;;;;;;8.60;1.90;;;3.80;99.90;;;;;;5038172;28;20029;-55
2023/04/26 00:11:41;;;;;;;9.05;2.38;;;3.80;99.90;;;;;;5038578;28;20079;-55
2023/04/26 00:14:06;;;;;;;8.55;2.70;;;3.90;99.90;;;;;;5038674;28;20041;-55
2023/04/26 00:16:32;;;;;;;7.80;2.55;;;3.90;99.90;;;;;;5038504;28;20571;-56
2023/04/26 00:18:58;;;;;;;11.20;2.20;;;4.00;99.90;;;;;;5038747;28;20046;-55
2023/04/26 00:21:23;;;;;;;7.90;2.30;;;3.90;99.90;;;;;;5038108;28;20140;-55
2023/04/26 00:23:49;;;;;;;8.75;2.50;;;3.80;99.90;;;;;;5036969;28;20053;-56
2023/04/26 00:26:15;;;;;;;9.10;2.58;;;3.90;99.90;;;;;;5038138;28;20053;-56
2023/04/26 00:28:40;;;;;;;8.85;2.30;;;3.90;99.90;;;;;;5020531;28;20033;-56
2023/04/26 00:41:12;;;;;;;8.85;2.17;;;3.90;99.90;;;;;;5605498;22;20063;31
2023/04/26 00:43:38;;;;;;;12.68;2.97;;;3.80;99.90;;;;;;5258500;22;20093;-60
2023/04/26 00:46:05;;;;;;;10.73;2.30;;;3.80;99.90;;;;;;5028048;23;20046;-56
2023/04/26 00:48:31;;;;;;;7.40;2.17;;;3.50;99.90;;;;;;5020972;28;20050;-56
2023/04/26 00:50:56;;;;;;;10.13;2.58;;;3.50;99.90;;;;;;5023132;28;20049;-55
2023/04/26 00:53:22;;;;;;;9.82;2.55;;;3.50;99.90;;;;;;5020487;28;20053;-55
2023/04/26 00:55:50;;;;;;;7.72;2.92;;;3.50;99.90;;;;;;5022585;28;20128;-56
2023/04/26 00:58:17;;;;;;;13.13;2.30;;;3.30;99.90;;;;;;5023287;28;20056;-57
2023/04/26 01:00:43;;;;;;;7.20;2.33;;;3.40;99.90;;;;;;5021187;28;20076;-55
2023/04/26 01:03:09;;;;;;;8.80;2.22;;;3.30;99.90;;;;;;5023543;28;20037;-56
2023/04/26 01:05:36;;;;;;;9.40;2.33;;;3.40;99.90;;;;;;5022448;28;20331;-56
2023/04/26 01:08:03;;;;;;;10.77;2.45;;;3.40;99.90;;;;;;5023035;28;20121;-56
2023/04/26 01:10:33;;;;;;;12.90;3.70;;;3.40;99.90;;;;;;5022764;28;20077;-57
2023/04/26 01:12:59;;;;;;;7.93;2.55;;;3.30;99.90;;;;;;5022391;28;20088;-57
2023/04/26 01:15:27;;;;;;;8.35;2.42;;;3.30;99.90;;;;;;5022003;28;20050;-56
2023/04/26 01:17:53;;;;;;;8.23;2.63;;;3.30;99.90;;;;;;5021963;28;20511;-54
2023/04/26 01:20:19;;;;;;;8.80;2.60;;;3.40;99.90;;;;;;5023188;28;20050;-56
2023/04/26 01:22:45;;;;;;;9.05;2.83;;;3.30;99.90;;;;;;5022326;28;20050;-57
2023/04/26 01:25:11;;;;;;;10.57;2.58;;;3.30;99.90;;;;;;5023355;28;20053;-56
2023/04/26 01:27:37;;;;;;;10.55;3.15;;;3.20;99.90;;;;;;5023034;28;20034;-54
2023/04/26 01:30:04;;;;;;;11.30;2.63;;;3.10;99.90;;;;;;5037785;28;20038;-56
2023/04/26 01:32:29;;;;;;;10.32;2.75;;;3.10;99.90;;;;;;5023244;28;20057;-57
2023/04/26 01:34:55;;;;;;;7.25;2.38;;;3.10;99.90;;;;;;5022011;28;20049;-56
2023/04/26 01:37:21;;;;;;;10.70;2.60;;;3.20;99.90;;;;;;5021839;28;20054;-56
2023/04/26 01:39:47;;;;;;;9.30;2.88;;;3.10;99.90;;;;;;5022012;28;20038;-54
2023/04/26 01:42:12;;;;;;;9.52;2.65;;;3.10;99.90;;;;;;5023257;28;20045;-56
2023/04/26 01:44:38;;;;;;;7.47;2.30;;;3.10;99.90;;;;;;5022504;28;20042;-55
2023/04/26 01:47:04;;;;;;;9.35;2.70;;;3.20;99.90;;;;;;5021620;28;20061;-57
2023/04/26 01:49:31;;;;;;;9.20;2.67;;;3.10;99.90;;;;;;5020800;28;20053;-56
2023/04/26 01:51:58;;;;;;;14.48;3.20;;;3.20;99.90;;;;;;5020878;28;20117;-56
2023/04/26 01:54:23;;;;;;;10.77;2.47;;;3.10;99.90;;;;;;5020803;28;20046;-56
2023/04/26 01:56:49;;;;;;;9.10;2.15;;;3.50;99.90;;;;;;5022155;28;20091;-56
2023/04/26 01:59:15;;;;;;;8.73;2.00;;;3.60;99.90;;;;;;5024729;28;20046;-56
2023/04/26 02:01:42;;;;;;;6.60;2.45;;;3.70;99.90;;;;;;5025217;28;20048;-56
2023/04/26 02:04:08;;;;;;;8.57;2.55;;;3.70;99.90;;;;;;5024626;28;20057;-55
2023/04/26 02:06:33;;;;;;;6.72;2.53;;;3.70;99.90;;;;;;5025313;28;20037;-56
2023/04/26 02:08:59;;;;;;;8.43;2.17;;;3.70;99.90;;;;;;5024596;28;20049;-57
2023/04/26 02:11:25;;;;;;;9.73;2.10;;;3.70;99.90;;;;;;5024679;28;20104;-56
2023/04/26 02:13:52;;;;;;;10.00;2.08;;;3.60;99.90;;;;;;5024374;28;20049;-56
2023/04/26 02:16:18;;;;;;;7.57;2.15;;;3.60;99.90;;;;;;5024417;28;20042;-56
2023/04/26 02:18:43;;;;;;;6.00;1.92;;;4.10;99.90;;;;;;5024072;28;20053;-56
2023/04/26 02:21:10;;;;;;;10.45;2.13;;;3.70;99.90;;;;;;5024300;28;20053;-57
2023/04/26 02:35:12;;;;;;;8.57;2.45;;;3.40;99.90;;;;;;5019764;28;20034;-57
2023/04/26 02:37:47;;;;;;;9.95;2.70;;;3.40;99.90;;;;;;5022013;28;20038;-56
2023/04/26 02:40:29;;;;;;;10.40;2.43;;;3.40;99.90;;;;;;4999701;28;20062;-54
2023/04/26 02:42:55;;;;;;;10.82;2.92;;;3.30;99.90;;;;;;5000131;28;20054;-56
2023/04/26 02:45:21;;;;;;;7.93;2.45;;;3.20;99.90;;;;;;5000512;28;20043;-56
2023/04/26 02:47:47;;;;;;;10.73;2.80;;;3.30;99.90;;;;;;4999535;28;20050;-56
2023/04/26 02:50:12;;;;;;;9.35;2.90;;;3.20;99.90;;;;;;5000498;28;20089;-55
2023/04/26 02:52:38;;;;;;;11.50;2.80;;;3.20;99.90;;;;;;5000120;28;20128;-57
2023/04/26 02:55:05;;;;;;;8.68;2.63;;;3.10;99.90;;;;;;5000367;28;20050;-57
2023/04/26 02:57:31;;;;;;;9.80;2.50;;;3.30;99.90;;;;;;5000401;28;20046;-57
2023/04/26 02:59:57;;;;;;;14.70;2.38;;;3.30;99.90;;;;;;4984114;28;20476;-56
2023/04/26 03:02:23;;;;;;;6.60;2.17;;;3.20;99.90;;;;;;5000552;28;20102;-56
2023/04/26 03:04:49;;;;;;;10.52;2.53;;;3.20;99.90;;;;;;4999663;28;20082;-56
2023/04/26 03:07:15;;;;;;;6.18;2.30;;;3.20;99.90;;;;;;5000564;28;20085;-57
2023/04/26 03:09:41;;;;;;;8.10;2.60;;;3.40;99.90;;;;;;4998829;28;20769;-57
2023/04/26 03:12:07;;;;;;;7.82;2.38;;;3.20;99.90;;;;;;5017141;28;20072;-56
2023/04/26 03:14:33;;;;;;;8.98;2.08;;;3.20;99.90;;;;;;5021881;28;20045;-56
2023/04/26 03:16:59;;;;;;;9.68;2.40;;;3.30;99.90;;;;;;5022126;28;20081;-57
2023/04/26 03:19:26;;;;;;;7.45;2.10;;;3.30;99.90;;;;;;5022263;28;20068;-56
2023/04/26 03:21:52;;;;;;;8.75;2.20;;;3.20;99.90;;;;;;5021872;28;20049;-56
2023/04/26 03:24:17;;;;;;;7.85;2.40;;;3.40;99.90;;;;;;5021189;28;20362;-57
2023/04/26 03:26:43;;;;;;;11.23;2.28;;;3.40;99.90;;;;;;5020409;28;20501;-56
2023/04/26 03:29:09;;;;;;;8.07;2.40;;;3.40;99.90;;;;;;5022211;28;20081;-55
2023/04/26 03:31:34;;;;;;;8.00;2.33;;;3.50;99.90;;;;;;5021653;28;20114;-57
2023/04/26 03:34:00;;;;;;;9.73;2.28;;;3.70;99.90;;;;;;5021781;28;20042;-56
2023/04/26 03:36:27;;;;;;;10.77;2.65;;;3.70;99.90;;;;;;5022093;28;20052;-56
2023/04/26 03:38:53;;;;;;;5.10;1.80;;;3.70;99.90;;;;;;5021357;28;20132;-54
2023/04/26 03:41:19;;;;;;;5.97;2.30;;;3.50;99.90;;;;;;5037254;28;20065;-56
2023/04/26 03:43:45;;;;;;;6.97;2.30;;;3.50;99.90;;;;;;5021234;28;20058;-56
2023/04/26 03:46:11;;;;;;;8.65;3.53;;;3.60;99.90;;;;;;5021872;28;20125;-57
2023/04/26 03:48:37;;;;;;;9.80;2.45;;;3.50;99.90;;;;;;5020877;28;20080;-56
2023/04/26 03:51:03;;;;;;;8.07;2.20;;;3.70;99.90;;;;;;5021760;28;20056;-57
2023/04/26 03:53:28;;;;;;;7.65;2.35;;;3.70;99.90;;;;;;5021943;28;20720;-56
2023/04/26 03:55:54;;;;;;;7.43;2.10;;;3.70;99.90;;;;;;5021406;28;20069;-57
2023/04/26 03:58:20;;;;;;;6.30;1.83;;;3.80;99.90;;;;;;5021858;28;20053;-57
2023/04/26 04:00:46;;;;;;;10.25;2.30;;;3.70;99.90;;;;;;5020961;28;20413;-57
2023/04/26 04:03:11;;;;;;;8.77;2.58;;;3.80;99.90;;;;;;5021544;28;20041;-57
2023/04/26 04:05:37;;;;;;;7.55;2.38;;;4.00;99.90;;;;;;5021027;28;20068;-59
2023/04/26 04:08:03;;;;;;;4.97;1.90;;;4.00;99.90;;;;;;5021430;28;20100;-59
2023/04/26 04:10:29;;;;;;;6.32;1.70;;;3.90;99.90;;;;;;5020939;28;20103;-58
2023/04/26 04:12:54;;;;;;;7.38;2.13;;;4.10;99.90;;;;;;5021041;28;20501;-57
2023/04/26 04:15:20;;;;;;;7.95;1.85;;;3.90;99.90;;;;;;5021578;28;20417;-58
2023/04/26 04:17:46;;;;;;;9.48;2.10;;;3.90;99.90;;;;;;5035917;28;20038;-58
2023/04/26 04:20:12;;;;;;;8.40;2.17;;;4.10;99.90;;;;;;5020332;28;20084;-58
2023/04/26 04:22:38;;;;;;;8.13;1.80;;;4.00;99.90;;;;;;5020420;28;20045;-58
2023/04/26 04:25:12;;;;;;;8.65;2.22;;;3.80;99.90;;;;;;5020120;28;20053;-58
2023/04/26 04:27:41;;;;;;;9.88;2.25;;;3.80;99.90;;;;;;5021195;28;20053;-55
2023/04/26 04:30:08;;;;;;;5.93;2.35;;;4.10;99.90;;;;;;5020558;28;20050;-57
2023/04/26 04:32:38;;;;;;;7.90;2.40;;;3.90;99.90;;;;;;5021235;28;20038;-57
2023/04/26 04:35:04;;;;;;;9.40;2.33;;;3.80;99.90;;;;;;5020300;28;20042;-54
2023/04/26 04:37:32;;;;;;;7.57;2.13;;;4.10;99.90;;;;;;5021052;28;20499;-57
2023/04/26 04:39:58;;;;;;;9.10;2.45;;;3.80;99.90;;;;;;5020114;28;20057;-58
2023/04/26 04:42:26;;;;;;;8.63;2.60;;;4.20;99.90;;;;;;5036039;28;20439;-57
2023/04/26 04:44:52;;;;;;;10.07;3.10;;;4.00;99.90;;;;;;5020637;28;20050;-57
2023/04/26 04:47:18;;;;;;;11.30;2.67;;;3.80;99.90;;;;;;5019719;28;20493;-58
2023/04/26 04:49:43;;;;;;;7.65;2.20;;;4.00;99.90;;;;;;5021032;28;20053;-57
2023/04/26 04:52:09;;;;;;;8.25;2.10;;;4.10;99.90;;;;;;5020095;28;20050;-57
2023/04/26 04:54:35;;;;;;;7.95;2.63;;;3.90;99.90;;;;;;5020558;28;20049;-57
2023/04/26 04:57:01;;;;;;;6.53;2.10;;;4.30;99.90;;;;;;5020218;28;20040;-58
2023/04/26 04:59:27;;;;;;;6.75;2.28;;;4.10;99.90;;;;;;5020369;28;20511;-56
2023/04/26 05:01:53;;;;;;;10.02;2.35;;;3.90;99.90;;;;;;5020423;28;20073;-57
2023/04/26 05:04:18;;;;;;;6.97;2.53;;;4.00;99.90;;;;;;5020364;28;20515;-57
2023/04/26 05:06:44;;;;;;;7.78;2.50;;;4.30;99.90;;;;;;5020807;28;20086;-58
2023/04/26 05:09:10;;;;;;;8.73;2.53;;;3.90;99.90;;;;;;5019767;28;20053;-57
2023/04/26 05:11:35;;;;;;;7.80;2.33;;;4.10;99.90;;;;;;5020606;28;20512;-57
2023/04/26 05:14:01;;;;;;;6.93;3.00;;;4.00;99.90;;;;;;5019901;28;20049;-58
2023/04/26 05:16:27;;;;;;;7.00;2.60;;;3.80;99.90;;;;;;5035595;28;20093;-57
2023/04/26 05:18:53;;;;;;;9.68;2.33;;;4.10;99.90;;;;;;5020475;28;20437;-57
2023/04/26 05:21:19;;;;;;;9.95;2.30;;;4.00;99.90;;;;;;5020095;28;20402;-57
2023/04/26 05:23:45;;;;;;;6.05;2.20;;;3.70;99.90;;;;;;5019189;28;20072;-57
2023/04/26 05:26:13;;;;;;;8.75;2.45;;;3.90;99.90;;;;;;5020036;28;20061;-57
2023/04/26 05:28:40;;;;;;;9.63;2.55;;;3.80;99.90;;;;;;5020574;28;20065;-57
2023/04/26 05:31:05;;;;;;;5.85;1.88;;;3.80;99.90;;;;;;5034918;28;20046;-57
2023/04/26 05:33:31;;;;;;;8.38;2.53;;;4.00;99.90;;;;;;5023969;28;20052;-57
2023/04/26 05:35:57;;;;;;;8.40;2.20;;;4.00;99.90;;;;;;5024218;28;20053;-57
2023/04/26 05:38:23;;;;;;;7.85;2.38;;;4.40;99.90;;;;;;5024048;28;20413;-56
2023/04/26 05:40:49;;;;;;;6.18;2.35;;;4.30;99.90;;;;;;5023996;28;20052;-57
2023/04/26 05:43:15;;;;;;;7.43;2.40;;;4.40;99.90;;;;;;5019462;28;20042;-58
2023/04/26 05:45:52;;;;;;;8.27;2.50;;;4.50;99.90;;;;;;5020158;28;20041;-58
2023/04/26 05:48:19;;;;;;;9.38;2.42;;;4.30;99.90;;;;;;5019154;28;20053;-56
2023/04/26 05:50:44;;;;;;;8.40;2.20;;;4.80;99.90;;;;;;5020282;28;20053;-57
2023/04/26 05:53:10;;;;;;;7.18;2.22;;;4.60;99.90;;;;;;5019808;28;20084;-57
2023/04/26 05:55:36;;;;;;;6.10;2.28;;;4.60;99.90;;;;;;5019230;28;20121;-58
2023/04/26 05:58:01;;;;;;;5.65;2.03;;;4.80;99.90;;;;;;5020269;28;20484;-57
2023/04/26 06:00:27;;;;;;;7.18;2.10;;;4.80;99.90;;;;;;5010913;28;20422;-57
2023/04/26 06:02:53;;;;;;;8.13;1.98;;;4.80;99.90;;;;;;5008279;28;20133;-57
2023/04/26 06:05:19;;;;;;;9.57;1.90;;;5.00;99.90;;;;;;5007129;28;20061;-57
2023/04/26 06:07:45;;;;;;;6.10;1.90;;;5.10;99.90;;;;;;5010139;28;20061;-57
2023/04/26 06:10:12;;;;;;;9.00;2.28;;;5.10;99.90;;;;;;5023316;28;20110;-57
2023/04/26 06:12:40;;;;;;;7.35;2.20;;;5.30;99.90;;;;;;5013442;28;20089;-57
2023/04/26 06:15:07;;;;;;;6.57;1.92;;;5.30;99.90;;;;;;5000967;28;20207;-57
2023/04/26 06:17:32;;;;;;;7.65;2.10;;;5.30;99.90;;;;;;4999541;28;20046;-57
2023/04/26 06:19:58;;;;;;;8.98;2.10;;;5.40;99.90;;;;;;4999798;28;20046;-57
2023/04/26 06:22:23;;;;;;;4.90;2.05;;;5.50;99.90;;;;;;4999126;28;20046;-58
2023/04/26 06:24:50;;;;;;;7.03;2.00;;;5.40;99.90;;;;;;4999736;28;20129;-57
2023/04/26 06:27:15;;;;;;;6.07;2.20;;;5.60;99.90;;;;;;4999413;28;20042;-57
2023/04/26 06:29:42;;;;;;;7.55;2.45;;;5.50;99.90;;;;;;4999299;28;20549;-56
2023/04/26 06:32:08;;;;;;;5.47;1.98;;;5.30;99.90;;;;;;4999968;28;20059;-57
2023/04/26 06:34:34;;;;;;;5.45;2.20;;;5.40;99.90;;;;;;4999187;28;20042;-57
2023/04/26 06:37:00;;;;;;;5.60;2.20;;;5.50;99.90;;;;;;4999619;28;20053;-56
2023/04/26 06:39:25;;;;;;;7.20;2.42;;;5.50;99.90;;;;;;4998592;28;20110;-57
2023/04/26 06:41:51;;;;;;;7.53;2.95;;;5.80;99.90;;;;;;4999268;28;20398;-57
2023/04/26 06:44:17;;;;;;;11.63;2.88;;;5.90;99.90;;;;;;4998074;28;20050;-55
2023/04/26 06:46:43;;;;;;;6.50;2.42;;;6.00;99.90;;;;;;5001190;28;20133;-56
2023/04/26 06:49:10;;;;;;;10.00;2.40;;;5.90;99.90;;;;;;5018915;28;20077;-57
2023/04/26 06:51:35;;;;;;;6.93;2.60;;;5.90;99.90;;;;;;5018534;28;20050;-57
2023/04/26 06:54:01;;;;;;;6.65;2.28;;;5.90;99.90;;;;;;5018633;28;20152;-57
2023/04/26 06:56:27;;;;;;;9.07;2.75;;;5.80;99.90;;;;;;5016655;28;20041;-57
2023/04/26 06:59:01;;;;;;;9.43;2.58;;;5.80;99.90;;;;;;5008102;28;20125;-57
2023/04/26 07:01:32;;;;;;;10.07;2.55;;;5.80;99.90;;;;;;5008648;28;20176;-57
2023/04/26 07:04:09;;;;;;;8.45;2.60;;;5.70;99.90;;;;;;5010987;28;20042;-56
2023/04/26 07:06:36;;;;;;;11.05;2.80;;;6.00;99.90;;;;;;5007936;28;20052;-56
2023/04/26 07:09:02;;;;;;;7.88;2.25;;;6.20;99.90;;;;;;5021124;28;20054;-57
2023/04/26 07:11:28;;;;;;;6.60;2.08;;;6.50;99.90;;;;;;4999076;28;20042;-57
2023/04/26 07:13:54;;;;;;;8.35;2.45;;;6.60;99.90;;;;;;5003335;28;20143;-57
2023/04/26 07:16:20;;;;;;;7.80;2.35;;;6.50;99.90;;;;;;4998690;28;20050;-53
2023/04/26 07:18:47;;;;;;;7.78;2.38;;;6.60;99.90;;;;;;4998349;28;20074;-57
2023/04/26 07:21:13;;;;;;;8.82;2.50;;;6.60;99.90;;;;;;4998923;28;20816;-57
2023/04/26 07:23:39;;;;;;;6.72;2.10;;;6.70;99.90;;;;;;4999130;28;20058;-57
2023/04/26 07:26:05;;;;;;;7.10;2.38;;;6.90;99.90;;;;;;4997010;28;20046;-58
2023/04/26 07:28:31;;;;;;;10.88;3.63;;;7.00;99.90;;;;;;4998711;28;20089;-57
2023/04/26 07:30:58;;;;;;;9.30;2.58;;;7.10;99.90;;;;;;4996498;28;20057;-57
2023/04/26 07:33:23;;;;;;;10.70;2.15;;;7.10;99.90;;;;;;4998589;28;20120;-57
2023/04/26 07:35:55;;;;;;;5.80;1.90;;;7.10;99.90;;;;;;4997909;28;20597;-56
2023/04/26 07:38:21;;;;;;;7.40;2.20;;;7.40;99.90;;;;;;4998253;28;20053;-57
2023/04/26 07:40:46;;;;;;;5.60;2.20;;;7.40;99.90;;;;;;4998440;28;20046;-57
2023/04/26 07:43:14;;;;;;;6.75;2.03;;;7.60;99.90;;;;;;5013513;28;20045;-57
2023/04/26 07:45:40;;;;;;;10.32;2.47;;;7.50;99.90;;;;;;5017997;28;20045;-57
2023/04/26 07:48:06;;;;;;;12.00;2.20;;;7.90;99.90;;;;;;5016778;28;20050;-57
2023/04/26 07:50:31;;;;;;;11.65;2.15;;;7.80;99.90;;;;;;5017802;28;20136;-57
2023/04/26 07:52:57;;;;;;;7.07;2.28;;;7.40;99.90;;;;;;5017394;28;20073;-57
2023/04/26 07:55:23;;;;;;;7.43;2.58;;;6.90;99.90;;;;;;5002906;28;20399;-56
2023/04/26 07:57:49;;;;;;;10.88;2.60;;;6.80;99.90;;;;;;4998355;28;20049;-56
2023/04/26 08:00:15;;;;;;;8.18;2.38;;;6.70;99.90;;;;;;4997758;28;20093;-57
2023/04/26 08:02:41;;;;;;;9.50;2.63;;;6.70;99.90;;;;;;5005641;28;20038;-57
2023/04/26 08:05:07;;;;;;;7.10;2.30;;;6.50;99.90;;;;;;5007384;28;20069;-56
2023/04/26 08:07:33;;;;;;;11.32;2.65;;;6.60;99.90;;;;;;5006512;28;20042;-58
2023/04/26 08:09:59;;;;;;;9.25;2.35;;;6.80;99.90;;;;;;5005700;28;20045;-55
2023/04/26 08:12:25;;;;;;;9.38;2.45;;;6.90;99.90;;;;;;5008029;28;20467;-57
2023/04/26 08:14:51;;;;;;;6.60;2.20;;;7.20;99.90;;;;;;5005917;28;20054;-57
2023/04/26 08:17:16;;;;;;;5.90;2.15;;;7.10;99.90;;;;;;5004985;28;20493;-57
2023/04/26 08:19:42;;;;;;;8.20;2.45;;;7.20;99.90;;;;;;5007571;28;20050;-58
2023/04/26 08:22:08;;;;;;;7.57;2.03;;;7.00;99.90;;;;;;5008236;28;20108;-57
2023/04/26 08:24:33;;;;;;;10.68;2.42;;;7.00;99.90;;;;;;5017270;28;20038;-57
2023/04/26 08:26:59;;;;;;;16.75;2.15;;;7.10;99.90;;;;;;5016327;28;20049;-57
2023/04/26 08:29:26;;;;;;;7.97;2.03;;;7.10;99.90;;;;;;5016603;28;20048;-57
2023/04/26 08:31:52;;;;;;;11.18;2.30;;;7.10;99.90;;;;;;5016577;28;20072;-57
2023/04/26 08:34:18;;;;;;;9.70;2.30;;;7.20;99.90;;;;;;5012748;28;20037;-57
2023/04/26 08:36:44;;;;;;;9.52;2.45;;;7.20;99.90;;;;;;5006522;28;20581;-57
2023/04/26 08:39:11;;;;;;;5.32;1.77;;;7.30;99.90;;;;;;5003032;28;20100;-58
2023/04/26 08:41:43;;;;;;;9.10;2.10;;;7.40;99.90;;;;;;4997126;28;20085;-56
2023/04/26 08:44:09;;;;;;;9.07;2.20;;;7.50;99.90;;;;;;4996706;28;20062;-57
2023/04/26 08:46:49;;;;;;;7.05;2.60;;;7.40;99.90;;;;;;4997725;28;20061;-57
2023/04/26 08:49:41;;;;;;;9.02;2.75;;;7.10;99.90;;;;;;5004107;28;20061;-58
2023/04/26 08:52:13;;;;;;;7.43;3.13;;;6.80;99.90;;;;;;5016060;28;20069;-57
2023/04/26 08:54:40;;;;;;;7.22;2.35;;;6.90;99.90;;;;;;5016248;28;20564;-57
2023/04/26 08:57:07;;;;;;;6.18;2.70;;;6.60;99.90;;;;;;5016224;28;20050;-56
2023/04/26 08:59:36;;;;;;;8.38;2.53;;;6.70;99.90;;;;;;5016673;28;20038;-57
2023/04/26 09:02:03;;;;;;;7.93;2.78;;;6.60;99.90;;;;;;5016986;28;20080;-61
2023/04/26 09:04:30;;;;;;;9.98;2.30;;;6.70;99.90;;;;;;5016122;28;20041;-57
2023/04/26 09:07:01;;;;;;;12.40;3.03;;;6.70;99.90;;;;;;5014676;28;20053;-57
2023/04/26 09:09:27;;;;;;;10.07;2.85;;;6.90;99.90;;;;;;5015455;28;20050;-57
2023/04/26 09:11:58;;;;;;;10.30;2.60;;;6.80;99.90;;;;;;5016944;28;20041;-57
2023/04/26 09:14:25;;;;;;;7.72;2.67;;;6.80;99.90;;;;;;5016134;28;20046;-57
2023/04/26 09:16:51;;;;;;;11.20;2.58;;;7.00;99.90;;;;;;5016458;28;20057;-58
2023/04/26 09:19:33;;;;;;;10.80;2.35;;;7.10;99.90;;;;;;5016308;28;20060;-56
2023/04/26 09:21:59;;;;;;;7.82;2.70;;;7.20;99.90;;;;;;5015318;28;20056;-57
2023/04/26 09:24:25;;;;;;;9.77;2.75;;;7.40;99.90;;;;;;5016533;28;20068;-57
2023/04/26 09:27:03;;;;;;;8.10;2.20;;;7.40;99.90;;;;;;5016158;28;20058;-57
2023/04/26 09:29:28;;;;;;;6.18;2.15;;;7.50;99.90;;;;;;5016507;28;20594;-58
2023/04/26 09:31:54;;;;;;;8.38;2.38;;;7.40;99.90;;;;;;5014666;28;20118;-58
2023/04/26 09:34:20;;;;;;;7.10;1.98;;;7.50;99.90;;;;;;5015393;28;20340;-57
2023/04/26 09:36:51;;;;;;;6.20;1.63;;;7.80;99.90;;;;;;5016731;28;20553;-58
2023/04/26 09:39:36;;;;;;;7.93;1.60;;;7.80;99.90;;;;;;5015612;28;20073;-57
2023/04/26 09:42:03;;;;;;;9.73;1.70;;;7.80;99.90;;;;;;5016078;28;20046;-57
2023/04/26 09:44:30;;;;;;;9.05;1.75;;;7.80;99.90;;;;;;5016220;28;20057;-57
2023/04/26 09:47:02;;;;;;;6.82;1.80;;;7.80;99.90;;;;;;5015308;28;20053;-57
2023/04/26 09:49:43;;;;;;;;;;;7.80;99.90;;;;;;5016211;28;20080;-58
2023/04/26 09:52:09;;;;;;;7.20;1.30;;;7.80;99.90;;;;;;5014375;28;19926;-56
2023/04/26 09:54:47;;;;;;;5.32;1.40;;;7.80;99.90;;;;;;5014650;28;20049;-57
2023/04/26 09:57:14;;;;;;;7.57;1.33;;;7.50;99.90;;;;;;5014904;28;20069;-57
2023/04/26 09:59:42;;;;;;;9.40;1.80;;;7.70;99.90;;;;;;5014713;28;20034;-57
2023/04/26 10:02:24;;;;;;;5.78;1.60;;;7.70;99.90;;;;;;5015644;28;20049;-58
2023/04/26 10:04:53;;;;;;;5.65;1.42;;;7.70;99.90;;;;;;5014578;28;20093;-57
2023/04/26 10:07:20;;;;;;;7.50;1.33;;;8.00;99.90;;;;;;5013636;28;20057;-56
2023/04/26 10:09:47;;;;;;;6.20;2.10;;;8.30;99.90;;;;;;5014471;28;20456;-58
2023/04/26 10:12:16;;;;;;;7.57;1.80;;;8.70;99.90;;;;;;5014802;28;20057;-58
2023/04/26 10:14:43;;;;;;;8.77;1.85;;;8.40;99.90;;;;;;5015329;28;20046;-57
2023/04/26 10:17:10;;;;;;;8.48;1.75;;;7.90;99.90;;;;;;5014434;28;20119;-58
2023/04/26 10:19:38;;;;;;;7.28;2.03;;;7.90;99.90;;;;;;5016989;28;20065;-57
2023/04/26 10:22:22;;;;;;;7.72;1.60;;;7.50;99.90;;;;;;5017829;28;20045;-56
2023/04/26 10:24:49;;;;;;;9.80;2.20;;;7.60;99.90;;;;;;5018565;28;20140;-57
2023/04/26 10:27:15;;;;;;;5.63;1.40;;;7.60;99.90;;;;;;5018299;28;20041;-57
2023/04/26 10:29:53;;;;;;;6.25;2.08;;;7.80;99.90;;;;;;5016145;28;20042;-57
2023/04/26 10:32:19;;;;;;;6.55;1.58;;;7.70;99.90;;;;;;5021206;28;20054;-57
2023/04/26 10:35:11;;;;;;;5.93;1.38;;;7.80;99.90;;;;;;5020433;28;20057;-58
2023/04/26 10:38:00;;;;;;;7.65;1.33;;;8.00;99.90;;;;;;5021174;28;20053;-57
2023/04/26 10:40:32;;;;;;;7.20;1.40;;;8.10;99.90;;;;;;5021490;28;20057;-57
2023/04/26 10:43:13;;;;;;;4.18;1.30;;;8.20;99.90;;;;;;5020763;28;20045;-57
2023/04/26 10:45:43;;;;;;;7.50;1.60;;;8.00;99.90;;;;;;5021935;28;20476;-57
2023/04/26 10:48:19;;;;;;;6.05;1.38;;;8.20;99.90;;;;;;5020858;28;20133;-58
2023/04/26 10:51:00;;;;;;;5.90;1.63;;;8.40;99.90;;;;;;5020893;28;20073;-58
2023/04/26 10:53:47;;;;;;;6.82;1.60;;;8.50;99.90;;;;;;5021320;28;20096;-57
2023/04/26 10:56:25;;;;;;;4.15;1.30;;;8.50;99.90;;;;;;5020164;28;20068;-57
2023/04/26 10:59:14;;;;;;;5.60;1.30;;;8.30;99.90;;;;;;5020192;28;20130;-57
2023/04/26 11:01:40;;;;;;;5.78;1.42;;;8.40;99.90;;;;;;5020434;28;20424;-58
2023/04/26 11:04:12;;;;;;;7.75;1.83;;;8.70;99.90;;;;;;5019159;28;20473;-58
2023/04/26 11:06:58;;;;;;;6.65;2.00;;;8.80;99.90;;;;;;5018933;28;20046;-58
2023/04/26 11:09:36;;;;;;;5.68;1.40;;;8.60;99.90;;;;;;5019694;28;20481;-57
2023/04/26 11:12:10;;;;;;;6.40;1.83;;;8.80;99.90;;;;;;5019400;28;20071;-57
2023/04/26 11:14:36;;;;;;;6.55;1.83;;;8.80;99.90;;;;;;5020566;28;20049;-58
2023/04/26 11:17:08;;;;;;;4.50;1.50;;;9.00;99.90;;;;;;5019783;28;20129;-57
2023/04/26 11:19:34;;;;;;;8.68;2.28;;;8.90;99.90;;;;;;5021062;28;20069;-57
2023/04/26 11:22:00;;;;;;;6.93;1.65;;;8.80;99.90;;;;;;5019484;28;20042;-57
2023/04/26 11:24:30;;;;;;;6.97;1.80;;;8.90;99.90;;;;;;5020360;28;20148;-57
2023/04/26 11:26:57;;;;;;;4.90;1.60;;;8.90;99.90;;;;;;5019731;28;20064;-57
2023/04/26 11:29:23;;;;;;;7.22;1.40;;;8.80;99.90;;;;;;5019788;28;20042;-57
2023/04/26 11:31:56;;;;;;;6.53;1.55;;;8.80;99.90;;;;;;5020752;28;20046;-57
2023/04/26 11:34:37;;;;;;;6.43;1.45;;;8.80;99.90;;;;;;5019705;28;20133;-57
2023/04/26 11:37:03;;;;;;;5.88;2.15;;;9.40;99.90;;;;;;5020927;28;20145;-56
2023/04/26 11:39:33;;;;;;;9.95;1.40;;;9.60;99.90;;;;;;5019952;28;20129;-57
2023/04/26 11:42:05;;;;;;;5.82;1.50;;;9.80;99.90;;;;;;5018916;28;20057;-58
2023/04/26 11:44:31;;;;;;;4.70;1.40;;;9.30;99.90;;;;;;5008861;28;20081;-57
2023/04/26 11:46:58;;;;;;;4.47;1.23;;;9.30;99.90;;;;;;5011546;28;20410;-57
2023/04/26 11:49:24;;;;;;;7.13;1.63;;;9.40;99.90;;;;;;5010073;28;20058;-58
2023/04/26 11:51:49;;;;;;;7.57;1.20;;;9.50;99.90;;;;;;5009660;28;20046;-58
2023/04/26 11:54:28;;;;;;;5.20;1.30;;;9.90;99.90;;;;;;5009516;28;21322;-57
2023/04/26 11:56:53;;;;;;;6.50;1.42;;;9.50;99.90;;;;;;5009915;28;20078;-58
2023/04/26 11:59:23;;;;;;;6.82;1.55;;;9.60;99.90;;;;;;5010442;28;20145;-58
2023/04/26 12:01:53;;;;;;;6.43;1.52;;;9.60;99.90;;;;;;5020774;28;20073;-57
2023/04/26 12:04:29;;;;;;;7.18;1.75;;;9.70;99.90;;;;;;5001363;28;20045;-57
2023/04/26 12:06:56;;;;;;;9.43;1.52;;;10.00;99.90;;;;;;5020317;28;20038;-59
2023/04/26 12:09:30;;;;;;;6.75;1.58;;;9.70;99.90;;;;;;5019049;28;20064;-57
2023/04/26 12:12:00;;;;;;;5.82;1.50;;;9.60;99.90;;;;;;5001710;28;20050;-57
2023/04/26 12:14:34;;;;;;;9.43;1.52;;;9.80;99.90;;;;;;5000303;28;20046;-58
2023/04/26 12:17:03;;;;;;;6.85;1.40;;;10.10;99.90;;;;;;4999530;28;20062;-57
2023/04/26 12:19:37;;;;;;;4.18;1.20;;;10.00;99.90;;;;;;5000452;28;20034;-58
2023/04/26 12:22:03;;;;;;;6.43;1.48;;;9.50;99.90;;;;;;4999262;28;20057;-57
2023/04/26 12:24:35;;;;;;;6.18;1.38;;;9.60;99.90;;;;;;4999295;28;20077;-57
2023/04/26 12:27:03;;;;;;;9.23;1.70;;;9.40;99.90;;;;;;4999335;28;20120;-58
2023/04/26 12:29:30;;;;;;;5.15;1.27;;;8.90;99.90;;;;;;4999110;28;20053;-56
2023/04/26 12:31:57;;;;;;;5.03;1.20;;;8.70;99.90;;;;;;5000436;28;20348;-54
2023/04/26 12:34:23;;;;;;;5.82;1.58;;;8.80;99.90;;;;;;5003910;28;20046;-56
2023/04/26 12:36:49;;;;;;;6.53;1.60;;;9.30;99.90;;;;;;5010285;28;20126;-55
2023/04/26 12:39:15;;;;;;;7.10;1.48;;;9.20;99.90;;;;;;5007275;28;20074;-55
2023/04/26 12:41:42;;;;;;;7.38;1.83;;;9.40;99.90;;;;;;4985774;28;20084;-56
2023/04/26 12:44:09;;;;;;;6.47;1.55;;;9.30;99.90;;;;;;4999672;28;20038;-56
2023/04/26 12:46:35;;;;;;;6.97;1.85;;;9.00;99.90;;;;;;5002704;28;20090;-56
2023/04/26 12:49:01;;;;;;;7.85;1.85;;;8.90;99.90;;;;;;5019376;28;20046;-56
2023/04/26 12:51:27;;;;;;;5.97;1.50;;;9.00;99.90;;;;;;5018750;28;20046;-56
2023/04/26 12:53:52;;;;;;;7.40;1.80;;;9.60;99.90;;;;;;5019734;28;20052;-56
2023/04/26 12:56:18;;;;;;;6.90;1.42;;;9.40;99.90;;;;;;5010299;28;20102;-56
2023/04/26 12:58:44;;;;;;;5.35;1.40;;;9.90;99.90;;;;;;5008958;28;20042;-56
2023/04/26 13:01:12;;;;;;;3.55;1.20;;;10.10;99.90;;;;;;5019030;28;20105;-56
2023/04/26 13:03:38;;;;;;;6.70;1.52;;;10.00;99.90;;;;;;5018747;28;20152;-57
2023/04/26 13:06:03;;;;;;;6.60;1.50;;;10.00;99.90;;;;;;5019623;28;20069;-57
2023/04/26 13:08:29;;;;;;;6.32;2.20;;;9.80;99.90;;;;;;5018300;28;20045;-56
2023/04/26 13:10:55;;;;;;;8.85;1.67;;;9.80;99.90;;;;;;5019605;28;20544;-56
2023/04/26 13:13:21;;;;;;;8.15;1.70;;;9.30;99.90;;;;;;5018385;28;20066;-56
2023/04/26 13:15:47;;;;;;;8.10;1.77;;;9.60;99.90;;;;;;5018937;28;20096;-56
2023/04/26 13:18:14;;;;;;;7.75;1.95;;;9.50;99.90;;;;;;5018770;28;20052;-55
2023/04/26 13:20:40;;;;;;;5.78;1.88;;;9.00;99.90;;;;;;5018841;28;20584;-56